createdAt,value
2018-05-13T00:01:04.713Z,9.02
2018-05-13T00:03:32.777Z,9.23
2018-05-13T00:06:01.265Z,9.32
2018-05-13T00:08:29.312Z,8.40
2018-05-13T00:10:57.408Z,9.07
2018-05-13T00:13:26.249Z,8.75
2018-05-13T00:15:54.317Z,10.00
2018-05-13T00:18:22.389Z,10.10
2018-05-13T00:20:50.461Z,8.20
2018-05-13T00:23:18.565Z,9.38
2018-05-13T00:25:46.641Z,8.63
2018-05-13T00:28:15.943Z,8.32
2018-05-13T00:30:44.010Z,6.03
2018-05-13T00:33:12.057Z,6.72
2018-05-13T00:35:40.153Z,6.90
2018-05-13T00:38:08.200Z,6.20
2018-05-13T00:40:36.476Z,8.88
2018-05-13T00:43:04.659Z,7.35
2018-05-13T00:45:32.643Z,7.90
2018-05-13T00:48:00.733Z,8.38
2018-05-13T00:50:29.198Z,9.10
2018-05-13T00:52:57.261Z,9.32
2018-05-13T00:55:25.333Z,8.10
2018-05-13T00:57:53.737Z,8.20
2018-05-13T01:00:21.783Z,7.93
2018-05-13T01:02:49.943Z,9.13
2018-05-13T01:05:18.446Z,9.05
2018-05-13T01:07:46.488Z,8.70
2018-05-13T01:10:14.573Z,8.57
2018-05-13T01:12:43.144Z,8.45
2018-05-13T01:15:11.229Z,8.48
2018-05-13T01:17:39.317Z,9.05
2018-05-13T01:20:07.410Z,8.23
2018-05-13T01:22:36.235Z,7.93
2018-05-13T01:25:04.329Z,9.07
2018-05-13T01:27:32.714Z,9.13
2018-05-13T01:30:00.964Z,9.43
2018-05-13T01:32:29.057Z,8.95
2018-05-13T01:34:57.473Z,8.33
2018-05-13T01:37:26.329Z,8.32
2018-05-13T01:39:54.397Z,8.52
2018-05-13T01:42:22.653Z,8.57
2018-05-13T01:44:50.721Z,7.85
2018-05-13T01:47:18.797Z,8.10
2018-05-13T01:49:46.869Z,7.20
2018-05-13T01:52:14.948Z,8.13
2018-05-13T01:54:43.237Z,8.90
2018-05-13T01:57:11.332Z,8.95
2018-05-13T01:59:40.205Z,8.52
2018-05-13T02:02:08.301Z,10.65
2018-05-13T02:04:37.960Z,8.70
2018-05-13T02:07:06.082Z,8.10
2018-05-13T02:09:34.153Z,8.32
2018-05-13T02:12:02.500Z,8.30
2018-05-13T02:14:30.601Z,9.88
2018-05-13T02:16:58.649Z,9.55
2018-05-13T02:19:26.716Z,11.00
2018-05-13T02:21:54.773Z,8.82
2018-05-13T02:24:22.857Z,8.93
2018-05-13T02:26:51.149Z,8.70
2018-05-13T02:29:19.328Z,8.60
2018-05-13T02:31:47.414Z,8.30
2018-05-13T02:34:15.533Z,9.93
2018-05-13T02:36:43.605Z,8.48
2018-05-13T02:39:11.668Z,9.40
2018-05-13T02:41:40.065Z,8.93
2018-05-13T02:44:08.137Z,8.88
2018-05-13T02:46:36.217Z,10.40
2018-05-13T02:49:04.317Z,10.07
2018-05-13T02:51:32.397Z,9.52
2018-05-13T02:54:01.357Z,9.95
2018-05-13T02:56:29.730Z,9.57
2018-05-13T02:58:57.822Z,9.75
2018-05-13T03:01:25.914Z,9.50
2018-05-13T03:03:55.285Z,9.93
2018-05-13T03:06:23.461Z,10.13
2018-05-13T03:08:51.548Z,9.20
2018-05-13T03:11:20.131Z,9.30
2018-05-13T03:13:48.729Z,9.88
2018-05-13T03:16:16.854Z,9.82
2018-05-13T03:18:44.940Z,9.38
2018-05-13T03:21:13.108Z,9.55
2018-05-13T03:23:41.220Z,10.02
2018-05-13T03:26:10.113Z,8.82
2018-05-13T03:28:38.967Z,8.40
2018-05-13T03:31:07.040Z,11.15
2018-05-13T03:33:35.417Z,9.40
2018-05-13T03:36:05.009Z,8.98
2018-05-13T03:38:33.130Z,9.75
2018-05-13T03:41:01.218Z,10.50
2018-05-13T03:43:30.290Z,9.75
2018-05-13T03:45:59.869Z,9.63
2018-05-13T03:48:27.957Z,9.00
2018-05-13T03:50:56.011Z,9.00
2018-05-13T03:53:24.072Z,9.35
2018-05-13T03:55:53.613Z,11.00
2018-05-13T03:58:21.705Z,8.07
2018-05-13T04:00:50.793Z,9.37
2018-05-13T04:03:19.928Z,9.93
2018-05-13T04:05:47.993Z,9.80
2018-05-13T04:08:16.993Z,10.00
2018-05-13T04:10:45.085Z,9.30
2018-05-13T04:13:13.165Z,9.73
2018-05-13T04:15:41.257Z,9.52
2018-05-13T04:18:09.505Z,8.85
2018-05-13T04:20:37.597Z,9.07
2018-05-13T04:23:05.677Z,8.60
2018-05-13T04:25:33.748Z,8.88
2018-05-13T04:28:02.626Z,8.05
2018-05-13T04:30:30.681Z,8.45
2018-05-13T04:32:59.205Z,7.93
2018-05-13T04:35:28.152Z,8.15
2018-05-13T04:37:56.257Z,7.65
2018-05-13T04:40:25.428Z,8.30
2018-05-13T04:42:53.495Z,8.50
2018-05-13T04:45:21.572Z,7.50
2018-05-13T04:47:49.661Z,8.93
2018-05-13T04:50:17.733Z,6.62
2018-05-13T04:52:45.813Z,7.70
2018-05-13T04:55:13.936Z,7.43
2018-05-13T04:57:42.065Z,6.87
2018-05-13T05:00:10.923Z,7.10
2018-05-13T05:02:39.292Z,7.18
2018-05-13T05:05:07.352Z,7.77
2018-05-13T05:07:35.440Z,6.93
2018-05-13T05:10:03.729Z,6.97
2018-05-13T05:12:31.786Z,6.87
2018-05-13T05:14:59.873Z,7.07
2018-05-13T05:17:28.254Z,8.25
2018-05-13T05:19:56.337Z,9.25
2018-05-13T05:22:24.453Z,8.00
2018-05-13T05:24:52.783Z,6.90
2018-05-13T05:27:20.855Z,7.40
2018-05-13T05:29:48.926Z,7.22
2018-05-13T05:32:17.818Z,7.53
2018-05-13T05:34:45.886Z,7.30
2018-05-13T05:37:13.962Z,7.35
2018-05-13T05:39:42.049Z,6.72
2018-05-13T05:42:10.894Z,6.68
2018-05-13T05:44:39.057Z,7.55
2018-05-13T05:47:07.172Z,7.18
2018-05-13T05:49:36.011Z,6.97
2018-05-13T05:52:04.101Z,7.10
2018-05-13T05:54:32.372Z,6.37
2018-05-13T05:57:00.467Z,9.40
2018-05-13T05:59:28.903Z,6.65
2018-05-13T06:01:57.617Z,7.03
2018-05-13T06:04:25.708Z,6.75
2018-05-13T06:06:53.782Z,6.90
2018-05-13T06:09:22.154Z,7.50
2018-05-13T06:11:50.208Z,7.28
2018-05-13T06:14:18.322Z,8.27
2018-05-13T06:16:47.394Z,9.25
2018-05-13T06:19:15.445Z,12.88
2018-05-13T06:21:43.621Z,11.18
2018-05-13T06:24:11.721Z,11.23
2018-05-13T06:26:39.813Z,13.07
2018-05-13T06:29:07.893Z,13.93
2018-05-13T06:31:36.013Z,16.12
2018-05-13T06:34:04.265Z,14.80
2018-05-13T06:36:32.341Z,16.85
2018-05-13T06:39:00.929Z,17.70
2018-05-13T06:41:29.041Z,19.95
2018-05-13T06:43:57.113Z,20.05
2018-05-13T06:46:25.288Z,23.25
2018-05-13T06:48:53.333Z,23.50
2018-05-13T06:51:21.463Z,24.20
2018-05-13T06:53:49.765Z,24.33
2018-05-13T06:56:17.848Z,25.65
2018-05-13T06:58:45.945Z,28.37
2018-05-13T07:01:14.317Z,26.03
2018-05-13T07:03:42.368Z,28.05
2018-05-13T07:06:10.428Z,25.47
2018-05-13T07:08:38.801Z,25.73
2018-05-13T07:11:06.967Z,24.80
2018-05-13T07:13:35.065Z,25.40
2018-05-13T07:16:03.160Z,29.00
2018-05-13T07:18:31.244Z,28.47
2018-05-13T07:21:00.126Z,30.70
2018-05-13T07:23:28.493Z,27.10
2018-05-13T07:25:56.548Z,28.27
2018-05-13T07:28:24.651Z,27.10
2018-05-13T07:30:52.733Z,26.77
2018-05-13T07:33:21.563Z,26.60
2018-05-13T07:35:50.098Z,28.87
2018-05-13T07:38:18.999Z,29.60
2018-05-13T07:40:47.845Z,30.43
2018-05-13T07:43:15.910Z,29.50
2018-05-13T07:45:44.192Z,27.30
2018-05-13T07:48:12.282Z,26.00
2018-05-13T07:50:40.353Z,23.37
2018-05-13T07:53:08.465Z,25.37
2018-05-13T07:55:36.567Z,25.07
2018-05-13T07:58:05.561Z,24.97
2018-05-13T08:00:33.649Z,23.87
2018-05-13T08:03:01.714Z,21.60
2018-05-13T08:05:30.084Z,21.77
2018-05-13T08:07:58.210Z,24.90
2018-05-13T08:10:27.060Z,22.03
2018-05-13T08:12:55.171Z,22.73
2018-05-13T08:15:24.028Z,22.35
2018-05-13T08:17:52.090Z,23.13
2018-05-13T08:20:20.658Z,23.23
2018-05-13T08:22:50.262Z,22.15
2018-05-13T08:25:19.192Z,23.60
2018-05-13T08:27:47.289Z,23.23
2018-05-13T08:30:16.122Z,24.17
2018-05-13T08:32:44.195Z,23.40
2018-05-13T08:35:12.665Z,22.30
2018-05-13T08:37:40.757Z,23.57
2018-05-13T08:40:08.848Z,22.30
2018-05-13T08:42:37.848Z,20.70
2018-05-13T08:45:05.900Z,24.40
2018-05-13T08:47:33.965Z,23.03
2018-05-13T08:50:02.429Z,21.58
2018-05-13T08:52:31.287Z,21.98
2018-05-13T08:54:59.385Z,23.13
2018-05-13T08:57:27.816Z,22.15
2018-05-13T08:59:55.877Z,24.17
2018-05-13T09:02:24.315Z,23.83
2018-05-13T09:04:52.818Z,23.02
2018-05-13T09:07:21.509Z,22.52
2018-05-13T09:09:49.582Z,19.90
2018-05-13T09:12:17.705Z,21.08
2018-05-13T09:14:47.276Z,27.20
2018-05-13T09:17:15.406Z,18.70
2018-05-13T09:19:43.489Z,18.05
2018-05-13T09:22:11.561Z,18.42
2018-05-13T09:24:39.653Z,19.15
2018-05-13T09:27:08.257Z,18.98
2018-05-13T09:29:36.389Z,18.02
2018-05-13T09:32:05.308Z,17.62
2018-05-13T09:34:33.393Z,18.37
2018-05-13T09:37:01.473Z,17.40
2018-05-13T09:39:30.416Z,17.58
2018-05-13T09:41:59.192Z,17.23
2018-05-13T09:44:27.801Z,17.92
2018-05-13T09:46:56.046Z,18.08
2018-05-13T09:49:24.153Z,18.25
2018-05-13T09:51:52.237Z,17.02
2018-05-13T09:54:20.829Z,17.62
2018-05-13T09:56:49.049Z,17.55
2018-05-13T09:59:17.129Z,16.98
2018-05-13T10:01:45.560Z,17.30
2018-05-13T10:04:14.431Z,17.75
2018-05-13T10:06:42.517Z,16.90
2018-05-13T10:09:10.587Z,15.27
2018-05-13T10:11:38.629Z,15.30
2018-05-13T10:14:06.717Z,15.02
2018-05-13T10:16:35.775Z,14.13
2018-05-13T10:19:04.618Z,17.48
2018-05-13T10:21:33.478Z,14.50
2018-05-13T10:24:01.891Z,14.52
2018-05-13T10:26:30.755Z,12.45
2018-05-13T10:28:58.840Z,13.07
2018-05-13T10:31:27.213Z,13.25
2018-05-13T10:33:55.410Z,13.07
2018-05-13T10:36:24.266Z,13.05
2018-05-13T10:38:53.665Z,13.45
2018-05-13T10:41:21.779Z,12.73
2018-05-13T10:43:50.601Z,13.88
2018-05-13T10:46:19.057Z,12.93
2018-05-13T10:48:47.890Z,16.73
2018-05-13T10:51:15.956Z,14.73
2018-05-13T10:53:44.337Z,15.32
2018-05-13T10:56:12.405Z,13.52
2018-05-13T10:58:40.518Z,11.55
2018-05-13T11:01:08.882Z,12.77
2018-05-13T11:03:36.958Z,12.90
2018-05-13T11:06:05.036Z,12.80
2018-05-13T11:08:34.236Z,13.27
2018-05-13T11:11:02.309Z,12.55
2018-05-13T11:13:31.813Z,13.27
2018-05-13T11:16:00.689Z,14.40
2018-05-13T11:18:28.744Z,15.10
2018-05-13T11:20:58.341Z,15.87
2018-05-13T11:23:26.937Z,14.90
2018-05-13T11:25:55.043Z,19.77
2018-05-13T11:28:23.896Z,14.63
2018-05-13T11:30:52.280Z,14.07
2018-05-13T11:33:20.336Z,18.23
2018-05-13T11:35:48.757Z,15.90
2018-05-13T11:38:16.891Z,16.20
2018-05-13T11:40:45.001Z,19.60
2018-05-13T11:43:13.892Z,18.47
2018-05-13T11:45:43.690Z,18.77
2018-05-13T11:48:11.773Z,22.87
2018-05-13T11:50:39.836Z,20.57
2018-05-13T11:53:07.901Z,21.50
2018-05-13T11:55:35.991Z,22.13
2018-05-13T11:58:04.865Z,22.63
2018-05-13T12:00:33.320Z,20.90
2018-05-13T12:03:01.421Z,20.70
2018-05-13T12:05:29.476Z,21.30
2018-05-13T12:07:57.840Z,21.73
2018-05-13T12:10:25.917Z,21.73
2018-05-13T12:12:54.035Z,24.07
2018-05-13T12:15:22.901Z,21.47
2018-05-13T12:17:51.972Z,25.37
2018-05-13T12:20:20.046Z,24.87
2018-05-13T12:22:48.236Z,24.00
2018-05-13T12:25:16.487Z,26.87
2018-05-13T12:27:44.569Z,25.93
2018-05-13T12:30:13.205Z,23.80
2018-05-13T12:32:42.086Z,25.80
2018-05-13T12:35:10.978Z,25.00
2018-05-13T12:37:39.932Z,25.90
2018-05-13T12:40:08.034Z,27.70
2018-05-13T12:42:36.092Z,26.50
2018-05-13T12:45:04.165Z,28.43
2018-05-13T12:47:32.253Z,26.43
2018-05-13T12:50:01.137Z,24.67
2018-05-13T12:52:29.517Z,25.00
2018-05-13T12:54:57.585Z,22.07
2018-05-13T12:57:25.649Z,23.20
2018-05-13T12:59:54.013Z,22.83
2018-05-13T13:02:22.159Z,23.17
2018-05-13T13:04:50.184Z,22.57
2018-05-13T13:07:18.269Z,22.87
2018-05-13T13:09:47.121Z,25.43
2018-05-13T13:12:15.192Z,22.83
2018-05-13T13:14:43.797Z,25.47
2018-05-13T13:17:11.844Z,24.03
2018-05-13T13:19:39.910Z,26.67
2018-05-13T13:22:08.064Z,27.37
2018-05-13T13:24:37.073Z,26.80
2018-05-13T13:27:05.998Z,26.20
2018-05-13T13:29:34.833Z,26.87
2018-05-13T13:32:02.935Z,26.47
2018-05-13T13:34:31.306Z,24.13
2018-05-13T13:36:59.382Z,28.60
2018-05-13T13:39:27.481Z,26.00
2018-05-13T13:41:55.856Z,26.47
2018-05-13T13:44:23.932Z,25.80
2018-05-13T13:46:52.809Z,25.60
2018-05-13T13:49:20.880Z,26.63
2018-05-13T13:51:49.123Z,24.80
2018-05-13T13:54:17.225Z,25.57
2018-05-13T13:56:45.604Z,25.57
2018-05-13T13:59:13.672Z,26.03
2018-05-13T14:01:41.742Z,24.60
2018-05-13T14:04:10.097Z,23.20
2018-05-13T14:06:38.213Z,23.13
2018-05-13T14:09:07.088Z,26.27
2018-05-13T14:11:35.577Z,26.37
2018-05-13T14:14:03.644Z,22.70
2018-05-13T14:16:31.880Z,25.30
2018-05-13T14:19:00.270Z,25.92
2018-05-13T14:21:28.366Z,24.83
2018-05-13T14:23:56.532Z,25.73
2018-05-13T14:26:24.518Z,25.13
2018-05-13T14:28:52.692Z,28.70
2018-05-13T14:31:21.585Z,26.95
2018-05-13T14:33:49.661Z,29.40
2018-05-13T14:36:17.776Z,27.43
2018-05-13T14:38:45.852Z,28.12
2018-05-13T14:41:14.093Z,31.27
2018-05-13T14:43:42.119Z,27.70
2018-05-13T14:46:10.225Z,26.30
2018-05-13T14:48:39.056Z,26.30
2018-05-13T14:51:07.144Z,26.30
2018-05-13T14:53:35.973Z,26.97
2018-05-13T14:56:04.041Z,25.17
2018-05-13T14:58:32.140Z,25.43
2018-05-13T15:01:00.236Z,25.07
2018-05-13T15:03:28.329Z,34.00
2018-05-13T15:05:56.389Z,26.10
2018-05-13T15:08:24.764Z,26.77
2018-05-13T15:10:52.891Z,27.23
2018-05-13T15:13:21.776Z,25.90
2018-05-13T15:15:51.030Z,25.97
2018-05-13T15:18:19.101Z,26.90
2018-05-13T15:20:47.215Z,26.33
2018-05-13T15:23:16.064Z,26.37
2018-05-13T15:25:44.141Z,27.13
2018-05-13T15:28:12.204Z,29.87
2018-05-13T15:30:40.318Z,28.27
2018-05-13T15:33:08.382Z,28.27
2018-05-13T15:35:36.455Z,29.57
2018-05-13T15:38:05.236Z,28.47
2018-05-13T15:40:33.295Z,28.30
2018-05-13T15:43:01.715Z,28.90
2018-05-13T15:45:30.686Z,32.33
2018-05-13T15:47:58.733Z,28.60
2018-05-13T15:50:26.792Z,27.60
2018-05-13T15:52:54.904Z,29.17
2018-05-13T15:55:23.545Z,26.57
2018-05-13T15:57:51.634Z,28.20
2018-05-13T16:00:20.001Z,28.33
2018-05-13T16:02:48.119Z,27.37
2018-05-13T16:05:16.977Z,29.63
2018-05-13T16:07:45.440Z,28.83
2018-05-13T16:10:13.513Z,29.03
2018-05-13T16:12:41.631Z,30.87
2018-05-13T16:15:10.901Z,26.50
2018-05-13T16:17:39.788Z,26.10
2018-05-13T16:20:07.890Z,28.90
2018-05-13T16:22:36.783Z,26.12
2018-05-13T16:25:05.157Z,25.98
2018-05-13T16:27:33.235Z,25.62
2018-05-13T16:30:02.228Z,25.02
2018-05-13T16:32:31.631Z,27.87
2018-05-13T16:35:00.473Z,24.93
2018-05-13T16:37:28.581Z,28.52
2018-05-13T16:39:56.841Z,26.83
2018-05-13T16:42:24.941Z,27.33
2018-05-13T16:44:53.000Z,26.48
2018-05-13T16:47:21.105Z,27.23
2018-05-13T16:49:49.571Z,26.80
2018-05-13T16:52:18.467Z,27.17
2018-05-13T16:54:46.538Z,25.07
2018-05-13T16:57:16.244Z,26.13
2018-05-13T16:59:45.140Z,26.50
2018-05-13T17:02:14.026Z,26.33
2018-05-13T17:04:42.904Z,26.92
2018-05-13T17:07:10.957Z,23.90
2018-05-13T17:09:39.101Z,24.92
2018-05-13T17:12:07.425Z,24.13
2018-05-13T17:14:36.280Z,22.83
2018-05-13T17:17:04.393Z,23.70
2018-05-13T17:19:32.456Z,24.03
2018-05-13T17:22:01.572Z,27.17
2018-05-13T17:24:30.401Z,26.77
2018-05-13T17:26:58.534Z,24.40
2018-05-13T17:29:27.440Z,23.67
2018-05-13T17:31:56.301Z,22.03
2018-05-13T17:34:25.382Z,25.47
2018-05-13T17:36:53.473Z,23.95
2018-05-13T17:39:22.403Z,21.67
2018-05-13T17:41:50.600Z,21.93
2018-05-13T17:44:18.754Z,21.90
2018-05-13T17:46:47.081Z,20.43
2018-05-13T17:49:15.153Z,18.87
2018-05-13T17:51:44.013Z,18.00
2018-05-13T17:54:12.113Z,15.47
2018-05-13T17:56:40.214Z,17.90
2018-05-13T17:59:08.340Z,13.98
2018-05-13T18:01:36.463Z,14.07
2018-05-13T18:04:04.809Z,15.87
2018-05-13T18:06:32.874Z,12.93
2018-05-13T18:09:00.949Z,15.00
2018-05-13T18:11:29.510Z,11.25
2018-05-13T18:13:57.607Z,13.63
2018-05-13T18:16:25.669Z,12.03
2018-05-13T18:18:53.792Z,11.50
2018-05-13T18:21:21.873Z,14.73
2018-05-13T18:23:49.945Z,16.60
2018-05-13T18:26:18.053Z,11.33
2018-05-13T18:28:46.129Z,14.27
2018-05-13T18:31:14.221Z,13.30
2018-05-13T18:33:43.169Z,12.43
2018-05-13T18:36:11.261Z,12.73
2018-05-13T18:38:39.319Z,14.23
2018-05-13T18:41:07.433Z,12.47
2018-05-13T18:43:36.272Z,11.23
2018-05-13T18:46:04.377Z,12.03
2018-05-13T18:48:34.203Z,12.30
2018-05-13T18:51:03.061Z,12.93
2018-05-13T18:53:31.117Z,11.40
2018-05-13T18:55:59.197Z,13.07
2018-05-13T18:58:27.298Z,12.88
2018-05-13T19:00:56.344Z,12.47
2018-05-13T19:03:24.425Z,14.45
2018-05-13T19:05:52.533Z,14.37
2018-05-13T19:08:21.401Z,14.00
2018-05-13T19:10:49.696Z,13.77
2018-05-13T19:13:17.744Z,14.60
2018-05-13T19:15:45.809Z,15.17
2018-05-13T19:18:14.184Z,15.18
2018-05-13T19:20:42.279Z,16.30
2018-05-13T19:23:10.362Z,16.47
2018-05-13T19:25:38.626Z,16.40
2018-05-13T19:28:06.681Z,20.60
2018-05-13T19:30:34.753Z,20.43
2018-05-13T19:33:03.228Z,21.87
2018-05-13T19:35:31.341Z,21.77
2018-05-13T19:38:00.240Z,20.87
2018-05-13T19:40:29.133Z,21.30
2018-05-13T19:42:58.016Z,25.27
2018-05-13T19:45:26.084Z,21.80
2018-05-13T19:47:54.964Z,20.23
2018-05-13T19:50:23.108Z,21.00
2018-05-13T19:52:51.785Z,22.53
2018-05-13T19:55:19.856Z,21.57
2018-05-13T19:57:47.943Z,21.73
2018-05-13T20:00:17.473Z,17.80
2018-05-13T20:02:45.553Z,19.53
2018-05-13T20:05:13.617Z,20.03
2018-05-13T20:07:41.706Z,24.00
2018-05-13T20:10:10.553Z,18.93
2018-05-13T20:12:38.628Z,15.73
2018-05-13T20:15:07.018Z,17.57
2018-05-13T20:17:35.109Z,15.67
2018-05-13T20:20:03.969Z,17.63
2018-05-13T20:22:32.317Z,16.60
2018-05-13T20:25:00.425Z,14.70
2018-05-13T20:27:28.514Z,18.10
2018-05-13T20:29:58.697Z,16.37
2018-05-13T20:32:26.781Z,17.07
2018-05-13T20:34:54.877Z,21.90
2018-05-13T20:37:22.940Z,15.43
2018-05-13T20:39:51.033Z,18.23
2018-05-13T20:42:19.898Z,16.60
2018-05-13T20:44:47.973Z,15.80
2018-05-13T20:47:16.715Z,18.30
2018-05-13T20:49:44.841Z,17.73
2018-05-13T20:52:12.884Z,18.80
2018-05-13T20:54:40.959Z,17.87
2018-05-13T20:57:09.029Z,18.13
2018-05-13T20:59:37.129Z,20.83
2018-05-13T21:02:05.981Z,19.40
2018-05-13T21:04:34.092Z,23.17
2018-05-13T21:07:02.173Z,22.43
2018-05-13T21:09:30.277Z,23.80
2018-05-13T21:11:58.453Z,26.67
2018-05-13T21:14:26.544Z,31.17
2018-05-13T21:16:54.616Z,32.60
2018-05-13T21:19:22.709Z,35.60
2018-05-13T21:21:50.764Z,36.60
2018-05-13T21:24:18.841Z,44.87
2018-05-13T21:26:46.916Z,41.43
2018-05-13T21:29:15.732Z,43.93
2018-05-13T21:31:45.140Z,41.33
2018-05-13T21:34:14.025Z,43.47
2018-05-13T21:36:42.989Z,47.47
2018-05-13T21:39:11.097Z,45.80
2018-05-13T21:41:39.979Z,47.40
2018-05-13T21:44:08.038Z,45.43
2018-05-13T21:46:36.136Z,44.23
2018-05-13T21:49:04.365Z,48.07
2018-05-13T21:51:33.386Z,47.57
2018-05-13T21:54:01.483Z,40.77
2018-05-13T21:56:30.345Z,48.67
2018-05-13T21:58:58.406Z,45.27
2018-05-13T22:01:27.203Z,48.20
2018-05-13T22:03:55.281Z,42.80
2018-05-13T22:06:23.348Z,44.60
2018-05-13T22:08:52.243Z,46.07
2018-05-13T22:11:21.625Z,47.03
2018-05-13T22:13:49.713Z,42.30
2018-05-13T22:16:18.448Z,42.73
2018-05-13T22:18:46.553Z,42.57
2018-05-13T22:21:14.691Z,45.23
2018-05-13T22:23:43.098Z,45.17
2018-05-13T22:26:11.401Z,44.30
2018-05-13T22:28:39.466Z,48.93
2018-05-13T22:31:07.849Z,46.23
2018-05-13T22:33:35.934Z,49.50
2018-05-13T22:36:04.791Z,47.13
2018-05-13T22:38:33.077Z,51.67
2018-05-13T22:41:01.139Z,56.33
2018-05-13T22:43:29.233Z,54.00
2018-05-13T22:45:57.321Z,56.27
2018-05-13T22:48:26.173Z,62.90
2018-05-13T22:50:54.473Z,66.40
2018-05-13T22:53:23.669Z,75.20
2018-05-13T22:55:51.790Z,71.10
2018-05-13T22:58:19.961Z,73.80
2018-05-13T23:00:48.251Z,66.10
2018-05-13T23:03:16.326Z,78.60
2018-05-13T23:05:44.396Z,76.27
2018-05-13T23:08:12.833Z,78.83
2018-05-13T23:10:41.677Z,73.00
2018-05-13T23:13:09.733Z,84.27
2018-05-13T23:15:38.200Z,72.50
2018-05-13T23:18:06.240Z,67.10
2018-05-13T23:20:34.296Z,69.50
2018-05-13T23:23:03.360Z,76.27
2018-05-13T23:25:31.423Z,78.80
2018-05-13T23:27:59.533Z,85.83
2018-05-13T23:30:27.680Z,90.97
2018-05-13T23:32:55.728Z,75.17
2018-05-13T23:35:23.813Z,84.83
2018-05-13T23:37:52.229Z,76.43
2018-05-13T23:40:20.276Z,79.57
2018-05-13T23:42:48.352Z,79.00
2018-05-13T23:45:16.763Z,71.17
2018-05-13T23:47:45.617Z,70.63
2018-05-13T23:50:13.715Z,71.70
2018-05-13T23:52:41.992Z,83.90
2018-05-13T23:55:10.285Z,72.60
2018-05-13T23:57:39.134Z,61.77
